Time;durP1;ratioP1;P1;durP2;ratioP2;P2;SDS_P1;SDS_P2;PMS_P1;PMS_P2;Temp;Humidity;BMP_temperature;BMP_pressure;BME280_temperature;BME280_humidity;BME280_pressure;Samples;Min_cycle;Max_cycle;Signal;HPM_P1;HPM_P2
2023/07/15 06:55:41;;;;;;;;;;;;;;;;;;1998737;29;19931;-78
2023/07/15 06:57:22;;;;;;;;;;;;;;;;;;1996114;29;19969;-78
2023/07/15 07:04:10;;;;;;;;;;;;;;;;;;;;;
2023/07/15 07:22:20;;;;;;;;;;;;;;;;;;2038185;29;20278;-77
2023/07/15 07:25:37;;;;;;;;;;;;;;;;;;2026277;29;19913;-77
2023/07/15 07:28:47;;;;;;;;;;;;;;;;;;;;;
2023/07/15 07:42:16;;;;;;;;;;;;;;;;;;2006355;29;19935;-77
2023/07/15 07:48:53;;;;;;;;;;;;;;;;;;;;;
2023/07/15 07:51:07;;;;;;;;;;;;;;;;;;;;;
2023/07/15 07:52:03;;;;;;;;;;;;;;;;;;2036851;29;19915;-75
2023/07/15 08:27:51;;;;;;;;;;;;;;;;;;1958986;30;19919;-76
2023/07/15 08:32:54;;;;;;;;;;;;;;;;;;1958517;30;20299;-76
2023/07/15 08:34:32;;;;;;;;;;;;;;;;;;1955779;30;19915;-75
2023/07/15 08:45:00;;;;;;;;;;;;;;;;;;1983461;29;19977;-75
2023/07/15 08:46:28;;;;;;;;;;;;;;;;;;;;;
2023/07/15 08:52:57;;;;;;;;;;;;;;;;;;2061429;28;19916;-76
2023/07/15 08:54:21;;;;;;;;;;;;;;;;;;2053512;28;19918;-75
2023/07/15 08:55:47;;;;;;;;;;;;;;;;;;2038432;28;19914;-76
2023/07/15 09:09:43;;;;;;;;;;;;;;;;;;;;;
2023/07/15 10:41:41;;;;;;;;;;;;;;;;;;2062907;28;19921;-92
2023/07/15 10:43:02;;;;;;;;;;;;;;;;;;2060809;28;20407;-93
2023/07/15 10:44:27;;;;;;;;;;;;;;;;;;2052720;28;19929;-93
2023/07/15 10:45:51;;;;;;;;;;;;;;;;;;2059046;28;19957;-93
2023/07/15 10:47:14;;;;;;;;;;;;;;;;;;2060882;28;20020;-94
2023/07/15 10:48:35;;;;;;;;;;;;;;;;;;2056823;28;19910;-93
2023/07/15 10:49:56;;;;;;;;;;;;;;;;;;2058248;28;20365;-92
2023/07/15 10:51:17;;;;;;;;;;;;;;;;;;2055185;28;19918;-93
2023/07/15 10:52:43;;;;;;;;;;;;;;;;;;2058655;28;19924;-92
2023/07/15 10:54:04;;;;;;;;;;;;;;;;;;2066425;28;19992;-93
2023/07/15 10:55:27;;;;;;;;;;;;;;;;;;2049348;28;20028;-93
2023/07/15 10:56:57;;;;;;;;;;;;;;;;;;;;;
2023/07/15 10:58:21;;;;;;;;;;;;;;;;;;2058784;28;19913;-92
2023/07/15 10:59:42;;;;;;;;;;;;;;;;;;2057635;28;19921;-94
2023/07/15 11:01:03;;;;;;;;;;;;;;;;;;2065156;28;19906;-93
2023/07/15 11:02:24;;;;;;;;;;;;;;;;;;2065490;28;20009;-92
2023/07/15 11:03:45;;;;;;;;;;;;;;;;;;2064632;28;19911;-93
2023/07/15 11:05:06;;;;;;;;;;;;;;;;;;2066205;28;19910;-93
2023/07/15 11:06:29;;;;;;;;;;;;;;;;;;2056837;28;20564;-92
2023/07/15 11:07:49;;;;;;;;;;;;;;;;;;2064561;28;19913;-92
2023/07/15 11:09:10;;;;;;;;;;;;;;;;;;2067598;28;19917;-92
2023/07/15 11:10:31;;;;;;;;;;;;;;;;;;2056877;28;19957;-93
2023/07/15 11:11:52;;;;;;;;;;;;;;;;;;2063564;28;19906;-92
2023/07/15 11:13:21;;;;;;;;;;;;;;;;;;2063100;28;19973;-91
2023/07/15 11:14:45;;;;;;;;;;;;;;;;;;2069180;28;19906;-93
2023/07/15 11:16:07;;;;;;;;;;;;;;;;;;2063462;28;19969;-92
2023/07/15 11:17:30;;;;;;;;;;;;;;;;;;2058161;28;20271;-92
2023/07/15 11:18:51;;;;;;;;;;;;;;;;;;2058702;28;20005;-93
2023/07/15 11:20:12;;;;;;;;;;;;;;;;;;2067788;28;19913;-92
2023/07/15 11:21:32;;;;;;;;;;;;;;;;;;2056796;28;20245;-92
2023/07/15 11:22:53;;;;;;;;;;;;;;;;;;2063221;28;19922;-91
2023/07/15 11:24:17;;;;;;;;;;;;;;;;;;2054798;28;19906;-91
2023/07/15 11:25:38;;;;;;;;;;;;;;;;;;2060322;28;19910;-91
2023/07/15 11:26:58;;;;;;;;;;;;;;;;;;2059571;28;19972;-91
2023/07/15 11:28:19;;;;;;;;;;;;;;;;;;2066046;28;20627;-91
2023/07/15 11:29:40;;;;;;;;;;;;;;;;;;2059209;28;19921;-90
2023/07/15 11:31:01;;;;;;;;;;;;;;;;;;2058194;28;19918;-90
2023/07/15 11:32:21;;;;;;;;;;;;;;;;;;2059749;28;19916;-90
2023/07/15 11:33:42;;;;;;;;;;;;;;;;;;2062736;28;19912;-90
2023/07/15 11:35:03;;;;;;;;;;;;;;;;;;2065738;28;19905;-91
2023/07/15 11:36:24;;;;;;;;;;;;;;;;;;2059929;28;19929;-91
2023/07/15 11:37:45;;;;;;;;;;;;;;;;;;2064078;28;20017;-90
2023/07/15 11:39:05;;;;;;;;;;;;;;;;;;2057846;28;19910;-90
2023/07/15 11:40:26;;;;;;;;;;;;;;;;;;2057835;28;20321;-90
2023/07/15 11:41:47;;;;;;;;;;;;;;;;;;2057105;28;19921;-90
2023/07/15 11:43:08;;;;;;;;;;;;;;;;;;2063645;28;19910;-90
2023/07/15 11:44:28;;;;;;;;;;;;;;;;;;2055940;28;19906;-90
2023/07/15 11:45:49;;;;;;;;;;;;;;;;;;2060562;28;19906;-91
2023/07/15 11:47:15;;;;;;;;;;;;;;;;;;2051676;28;19945;-90
2023/07/15 11:48:36;;;;;;;;;;;;;;;;;;2066750;28;19917;-92
2023/07/15 11:49:57;;;;;;;;;;;;;;;;;;2062210;28;19968;-91
2023/07/15 11:51:17;;;;;;;;;;;;;;;;;;2056559;28;20163;-91
2023/07/15 11:52:38;;;;;;;;;;;;;;;;;;2061840;28;19909;-91
2023/07/15 11:53:59;;;;;;;;;;;;;;;;;;2064373;28;19913;-92
2023/07/15 11:55:22;;;;;;;;;;;;;;;;;;2058743;28;19905;-91
2023/07/15 11:56:43;;;;;;;;;;;;;;;;;;2051708;28;19918;-92
2023/07/15 11:58:04;;;;;;;;;;;;;;;;;;2063382;28;19915;-91
2023/07/15 11:59:25;;;;;;;;;;;;;;;;;;2055996;28;20029;-91
2023/07/15 12:00:48;;;;;;;;;;;;;;;;;;2063980;28;19910;-91
2023/07/15 12:02:11;;;;;;;;;;;;;;;;;;2066329;28;19909;-91
2023/07/15 12:03:32;;;;;;;;;;;;;;;;;;2061450;28;20325;-92
2023/07/15 12:04:53;;;;;;;;;;;;;;;;;;2065042;28;19921;-91
2023/07/15 12:06:14;;;;;;;;;;;;;;;;;;2062869;28;19936;-91
2023/07/15 12:07:35;;;;;;;;;;;;;;;;;;2061217;28;19925;-90
2023/07/15 12:08:55;;;;;;;;;;;;;;;;;;2071611;28;19909;-91
2023/07/15 12:10:19;;;;;;;;;;;;;;;;;;2067263;28;19909;-91
2023/07/15 12:11:40;;;;;;;;;;;;;;;;;;2061571;28;19917;-91
2023/07/15 12:13:01;;;;;;;;;;;;;;;;;;2061136;28;19926;-92
2023/07/15 12:14:22;;;;;;;;;;;;;;;;;;2078329;28;19991;-92
2023/07/15 12:15:46;;;;;;;;;;;;;;;;;;2063068;28;19920;-91
2023/07/15 12:17:29;;;;;;;;;;;;;;;;;;;;;
2023/07/15 12:18:57;;;;;;;;;;;;;;;;;;2059203;28;19922;-93
2023/07/15 12:20:23;;;;;;;;;;;;;;;;;;2066446;28;19924;-93
2023/07/15 12:21:51;;;;;;;;;;;;;;;;;;2058171;28;19997;-93
2023/07/15 12:23:21;;;;;;;;;;;;;;;;;;2059685;28;19918;-93
2023/07/15 12:24:58;;;;;;;;;;;;;;;;;;2062333;28;19924;-93
2023/07/15 12:26:19;;;;;;;;;;;;;;;;;;2056726;28;20315;-92
2023/07/15 12:27:40;;;;;;;;;;;;;;;;;;2042007;28;19993;-92
2023/07/15 12:29:07;;;;;;;;;;;;;;;;;;2056911;28;19910;-93
2023/07/15 12:30:28;;;;;;;;;;;;;;;;;;2059569;28;19988;-93
2023/07/15 12:31:51;;;;;;;;;;;;;;;;;;2058073;28;19914;-92
2023/07/15 12:33:14;;;;;;;;;;;;;;;;;;2061485;28;19902;-96
2023/07/15 12:34:41;;;;;;;;;;;;;;;;;;2072046;28;19905;-96
2023/07/15 12:36:02;;;;;;;;;;;;;;;;;;2066356;28;19914;-96
2023/07/15 12:37:32;;;;;;;;;;;;;;;;;;2056891;28;19929;-96
2023/07/15 12:40:50;;;;;;;;;;;;;;;;;;2073510;28;19949;-96
2023/07/15 12:42:13;;;;;;;;;;;;;;;;;;2052608;28;19922;-96
2023/07/15 12:43:33;;;;;;;;;;;;;;;;;;2052677;28;19921;-96
2023/07/15 12:44:54;;;;;;;;;;;;;;;;;;2049588;28;19915;-96
2023/07/15 12:46:18;;;;;;;;;;;;;;;;;;2057008;28;19916;-96
2023/07/15 12:47:39;;;;;;;;;;;;;;;;;;2053027;28;19928;-96
2023/07/15 12:49:00;;;;;;;;;;;;;;;;;;2048886;28;19910;-96
2023/07/15 12:50:20;;;;;;;;;;;;;;;;;;2044094;29;20374;-96
2023/07/15 12:51:42;;;;;;;;;;;;;;;;;;2046716;28;19923;-96
2023/07/15 12:53:03;;;;;;;;;;;;;;;;;;2052895;28;19910;-96
2023/07/15 12:54:24;;;;;;;;;;;;;;;;;;2053852;28;19911;-96
2023/07/15 12:55:47;;;;;;;;;;;;;;;;;;2047951;28;19910;-96
2023/07/15 12:57:08;;;;;;;;;;;;;;;;;;2049068;28;19953;-96
2023/07/15 12:58:29;;;;;;;;;;;;;;;;;;2044333;28;19919;-96
2023/07/15 12:59:52;;;;;;;;;;;;;;;;;;2052298;29;19926;-96
2023/07/15 13:01:13;;;;;;;;;;;;;;;;;;2049891;28;20950;-96
2023/07/15 13:02:34;;;;;;;;;;;;;;;;;;2046716;29;19911;-96
2023/07/15 13:03:55;;;;;;;;;;;;;;;;;;2048839;29;19975;-96
2023/07/15 13:05:15;;;;;;;;;;;;;;;;;;2050465;28;19914;-96
2023/07/15 13:06:36;;;;;;;;;;;;;;;;;;2054565;28;19907;-96
2023/07/15 13:07:57;;;;;;;;;;;;;;;;;;2048116;28;19971;-96
2023/07/15 13:09:18;;;;;;;;;;;;;;;;;;2049554;29;19925;-96
2023/07/15 13:10:39;;;;;;;;;;;;;;;;;;2046441;28;19996;-96
2023/07/15 13:11:59;;;;;;;;;;;;;;;;;;2053885;28;19917;-96
2023/07/15 13:13:23;;;;;;;;;;;;;;;;;;2048452;29;19911;-96
2023/07/15 13:14:44;;;;;;;;;;;;;;;;;;2063826;28;19913;-96
2023/07/15 13:16:05;;;;;;;;;;;;;;;;;;2054685;28;20325;-96
2023/07/15 13:17:26;;;;;;;;;;;;;;;;;;2040236;28;19915;-96
2023/07/15 13:18:49;;;;;;;;;;;;;;;;;;2062131;28;19918;-96
2023/07/15 13:20:13;;;;;;;;;;;;;;;;;;2055453;28;19921;-96
2023/07/15 13:21:34;;;;;;;;;;;;;;;;;;2049676;29;19910;-96
2023/07/15 13:22:55;;;;;;;;;;;;;;;;;;2052710;28;19914;-96
2023/07/15 13:24:15;;;;;;;;;;;;;;;;;;2051817;29;19925;-96
2023/07/15 13:25:38;;;;;;;;;;;;;;;;;;2051851;28;19949;-96
2023/07/15 13:26:59;;;;;;;;;;;;;;;;;;2067606;28;19913;-96
2023/07/15 13:28:23;;;;;;;;;;;;;;;;;;2053670;28;20297;-96
2023/07/15 13:29:46;;;;;;;;;;;;;;;;;;2058205;28;19910;-96
2023/07/15 13:31:06;;;;;;;;;;;;;;;;;;2050777;29;19915;-96
2023/07/15 13:32:27;;;;;;;;;;;;;;;;;;2054585;28;19906;-96
2023/07/15 13:33:48;;;;;;;;;;;;;;;;;;2044366;29;20413;-96
2023/07/15 13:35:09;;;;;;;;;;;;;;;;;;2047053;29;19906;-96
2023/07/15 13:36:30;;;;;;;;;;;;;;;;;;2051591;28;19910;-96
2023/07/15 13:37:50;;;;;;;;;;;;;;;;;;2038075;29;19925;-96
2023/07/15 13:39:11;;;;;;;;;;;;;;;;;;2042241;29;19918;-96
2023/07/15 13:40:32;;;;;;;;;;;;;;;;;;2053022;28;19910;-96
2023/07/15 13:41:56;;;;;;;;;;;;;;;;;;2053169;28;19914;-96
2023/07/15 13:43:16;;;;;;;;;;;;;;;;;;2058399;28;19913;-96
2023/07/15 13:44:37;;;;;;;;;;;;;;;;;;2058957;28;19921;-96
2023/07/15 13:45:58;;;;;;;;;;;;;;;;;;2069402;28;20305;-96
2023/07/15 13:47:19;;;;;;;;;;;;;;;;;;2060288;28;19914;-96
2023/07/15 13:48:39;;;;;;;;;;;;;;;;;;2068138;28;19905;-96
2023/07/15 13:50:00;;;;;;;;;;;;;;;;;;2056802;28;19921;-96
2023/07/15 13:51:21;;;;;;;;;;;;;;;;;;2048938;28;19934;-96
2023/07/15 13:52:42;;;;;;;;;;;;;;;;;;2053493;28;19930;-96
2023/07/15 13:54:02;;;;;;;;;;;;;;;;;;2061338;28;19924;-96
2023/07/15 13:55:23;;;;;;;;;;;;;;;;;;2057916;28;19906;-96
2023/07/15 13:56:46;;;;;;;;;;;;;;;;;;2058029;28;19906;-96
2023/07/15 13:58:06;;;;;;;;;;;;;;;;;;2057232;28;19922;-96
2023/07/15 13:59:27;;;;;;;;;;;;;;;;;;2063101;28;19950;-96
2023/07/15 14:00:50;;;;;;;;;;;;;;;;;;2057987;28;19910;-96
2023/07/15 14:02:11;;;;;;;;;;;;;;;;;;2063157;28;19898;-96
2023/07/15 14:03:32;;;;;;;;;;;;;;;;;;2059284;28;19993;-96
2023/07/15 14:04:52;;;;;;;;;;;;;;;;;;2061338;28;19902;-96
2023/07/15 14:06:14;;;;;;;;;;;;;;;;;;2071516;28;19909;-96
2023/07/15 14:07:35;;;;;;;;;;;;;;;;;;2063514;28;19925;-96
2023/07/15 14:08:55;;;;;;;;;;;;;;;;;;2060764;28;19914;-96
2023/07/15 14:10:16;;;;;;;;;;;;;;;;;;2056470;28;19918;-96
2023/07/15 14:11:37;;;;;;;;;;;;;;;;;;2060233;28;19910;-96
2023/07/15 14:12:58;;;;;;;;;;;;;;;;;;2062019;28;19910;-95
2023/07/15 14:14:18;;;;;;;;;;;;;;;;;;2064277;28;19920;-96
2023/07/15 14:15:39;;;;;;;;;;;;;;;;;;2069668;28;19913;-96
2023/07/15 14:17:00;;;;;;;;;;;;;;;;;;2063386;28;19914;-96
2023/07/15 14:18:21;;;;;;;;;;;;;;;;;;2055583;28;19918;-96
2023/07/15 14:19:41;;;;;;;;;;;;;;;;;;2061521;28;19910;-96
2023/07/15 14:21:02;;;;;;;;;;;;;;;;;;2056754;28;19953;-96
2023/07/15 14:22:23;;;;;;;;;;;;;;;;;;2062650;28;20012;-96
2023/07/15 14:23:44;;;;;;;;;;;;;;;;;;2058400;28;19914;-96
2023/07/15 14:25:05;;;;;;;;;;;;;;;;;;2049319;29;20349;-96
2023/07/15 14:26:25;;;;;;;;;;;;;;;;;;2054943;28;19986;-96
2023/07/15 14:27:46;;;;;;;;;;;;;;;;;;2051802;28;19946;-96
2023/07/15 14:29:07;;;;;;;;;;;;;;;;;;2071304;28;19940;-96
2023/07/15 14:30:28;;;;;;;;;;;;;;;;;;2063408;28;19942;-96
2023/07/15 14:31:48;;;;;;;;;;;;;;;;;;2058892;28;19918;-96
2023/07/15 14:33:09;;;;;;;;;;;;;;;;;;2055721;28;19918;-96
2023/07/15 14:34:30;;;;;;;;;;;;;;;;;;2058361;28;20404;-96
2023/07/15 14:35:51;;;;;;;;;;;;;;;;;;2067988;28;19906;-96
2023/07/15 14:37:12;;;;;;;;;;;;;;;;;;2059483;28;19910;-96
2023/07/15 14:38:33;;;;;;;;;;;;;;;;;;2056104;28;19993;-96
2023/07/15 14:39:53;;;;;;;;;;;;;;;;;;2071277;28;19893;-96
2023/07/15 14:41:14;;;;;;;;;;;;;;;;;;2063894;28;19902;-96
2023/07/15 14:42:35;;;;;;;;;;;;;;;;;;2059073;28;19917;-96
2023/07/15 14:43:55;;;;;;;;;;;;;;;;;;2055330;28;19894;-96
2023/07/15 14:45:16;;;;;;;;;;;;;;;;;;2061034;28;20032;-96
2023/07/15 14:46:37;;;;;;;;;;;;;;;;;;2060561;28;19938;-96
2023/07/15 14:47:58;;;;;;;;;;;;;;;;;;2051311;28;19930;-96
2023/07/15 14:49:19;;;;;;;;;;;;;;;;;;2053784;28;19921;-96
2023/07/15 14:50:39;;;;;;;;;;;;;;;;;;2058937;28;19910;-96
2023/07/15 14:52:00;;;;;;;;;;;;;;;;;;2059501;28;19976;-96
2023/07/15 14:53:21;;;;;;;;;;;;;;;;;;2055932;28;19914;-96
2023/07/15 14:54:42;;;;;;;;;;;;;;;;;;2061290;28;19973;-96
2023/07/15 14:56:03;;;;;;;;;;;;;;;;;;2071245;28;19920;-96
2023/07/15 14:57:23;;;;;;;;;;;;;;;;;;2065028;28;19914;-96
2023/07/15 14:58:44;;;;;;;;;;;;;;;;;;2057679;28;19918;-96
2023/07/15 15:00:07;;;;;;;;;;;;;;;;;;2054644;28;20057;-96
2023/07/15 15:01:28;;;;;;;;;;;;;;;;;;2056051;28;19914;-96
2023/07/15 15:02:49;;;;;;;;;;;;;;;;;;2061654;28;19925;-96
2023/07/15 15:04:09;;;;;;;;;;;;;;;;;;2052442;28;19906;-96
2023/07/15 15:05:30;;;;;;;;;;;;;;;;;;2051691;29;19925;-96
2023/07/15 15:06:51;;;;;;;;;;;;;;;;;;2057693;28;19906;-96
2023/07/15 15:08:12;;;;;;;;;;;;;;;;;;2046711;28;20345;-96
2023/07/15 15:09:33;;;;;;;;;;;;;;;;;;2046903;29;19918;-96
2023/07/15 15:10:56;;;;;;;;;;;;;;;;;;2060208;28;19914;-96
2023/07/15 15:12:17;;;;;;;;;;;;;;;;;;2064662;28;19905;-96
2023/07/15 15:13:39;;;;;;;;;;;;;;;;;;2062674;28;19918;-96
2023/07/15 15:15:00;;;;;;;;;;;;;;;;;;2055228;28;19907;-96
2023/07/15 15:16:21;;;;;;;;;;;;;;;;;;2069594;28;19897;-96
2023/07/15 15:17:42;;;;;;;;;;;;;;;;;;2064364;28;19922;-96
2023/07/15 15:19:03;;;;;;;;;;;;;;;;;;2051818;28;19914;-96
2023/07/15 15:20:24;;;;;;;;;;;;;;;;;;2063038;28;19921;-96
2023/07/15 15:21:47;;;;;;;;;;;;;;;;;;2073833;28;19894;-96
2023/07/15 15:59:39;;;;;;;;;;;;;;;;;;2161547;23;20404;-79
2023/07/15 16:01:02;;;;;;;;;;;;;;;;;;2064169;28;20275;-79
2023/07/15 16:02:23;;;;;;;;;;;;;;;;;;2061417;28;19914;-78
2023/07/15 16:05:26;;;;;;;;;;;;;;;;;;2063664;28;19914;-77
2023/07/15 16:07:14;;;;;;;;;;;;;;;;;;2063687;28;19958;-80
2023/07/15 16:08:37;;;;;;;;;;;;;;;;;;2052296;28;19905;-82
2023/07/15 16:09:57;;;;;;;;;;;;;;;;;;2060383;28;19913;-79
2023/07/15 16:11:18;;;;;;;;;;;;;;;;;;2057762;28;19906;-80
2023/07/15 16:12:42;;;;;;;;;;;;;;;;;;2057107;28;19914;-80
2023/07/15 16:14:03;;;;;;;;;;;;;;;;;;2057703;28;19941;-80
2023/07/15 16:18:43;;;;;;;;;;;;;;;;;;2035597;28;19918;-79
2023/07/15 16:20:07;;;;;;;;;;;;;;;;;;2068471;28;19917;-78
2023/07/15 16:21:28;;;;;;;;;;;;;;;;;;2061135;28;19917;-78
2023/07/15 16:22:48;;;;;;;;;;;;;;;;;;2059242;28;19913;-78
2023/07/15 16:24:13;;;;;;;;;;;;;;;;;;2064312;28;19913;-79
2023/07/15 16:25:34;;;;;;;;;;;;;;;;;;2058304;28;19910;-78
2023/07/15 16:26:55;;;;;;;;;;;;;;;;;;2060553;28;19977;-80
2023/07/15 16:28:16;;;;;;;;;;;;;;;;;;2065269;28;20281;-80
2023/07/15 16:29:37;;;;;;;;;;;;;;;;;;2059461;28;19921;-79
2023/07/15 16:31:01;;;;;;;;;;;;;;;;;;2060268;28;19917;-79
2023/07/15 16:32:22;;;;;;;;;;;;;;;;;;2060622;28;19906;-79
2023/07/15 16:33:43;;;;;;;;;;;;;;;;;;2061497;28;19905;-77
2023/07/15 16:35:03;;;;;;;;;;;;;;;;;;2061249;28;19910;-78
2023/07/15 16:36:24;;;;;;;;;;;;;;;;;;2055483;28;19906;-77
2023/07/15 16:37:46;;;;;;;;;;;;;;;;;;2053568;28;19910;-80
2023/07/15 16:39:06;;;;;;;;;;;;;;;;;;2044543;28;20313;-79
2023/07/15 16:40:48;;;;;;;;;;;;;;;;;;2052843;28;20429;-81
2023/07/15 16:42:08;;;;;;;;;;;;;;;;;;2061845;28;19910;-81
2023/07/15 16:43:36;;;;;;;;;;;;;;;;;;2061365;28;19910;-78
2023/07/15 16:44:58;;;;;;;;;;;;;;;;;;2059224;28;20014;-79
2023/07/15 16:46:19;;;;;;;;;;;;;;;;;;2052851;28;19926;-79
2023/07/15 16:47:39;;;;;;;;;;;;;;;;;;2058329;28;20608;-80
2023/07/15 16:49:00;;;;;;;;;;;;;;;;;;2056536;28;19913;-79
2023/07/15 16:50:21;;;;;;;;;;;;;;;;;;2059703;28;19914;-79
2023/07/15 16:51:42;;;;;;;;;;;;;;;;;;2057908;28;19921;-79
2023/07/15 16:53:02;;;;;;;;;;;;;;;;;;2061221;28;20002;-80
2023/07/15 16:54:23;;;;;;;;;;;;;;;;;;2058862;28;19905;-81
2023/07/15 16:55:44;;;;;;;;;;;;;;;;;;2062817;28;19924;-79
2023/07/15 16:57:05;;;;;;;;;;;;;;;;;;2062039;28;19977;-79
2023/07/15 16:58:26;;;;;;;;;;;;;;;;;;2062287;28;19910;-82
2023/07/15 16:59:46;;;;;;;;;;;;;;;;;;2059835;28;20133;-83
2023/07/15 17:01:07;;;;;;;;;;;;;;;;;;2065037;28;19965;-79
2023/07/15 17:02:28;;;;;;;;;;;;;;;;;;2061499;28;19912;-79
2023/07/15 17:03:49;;;;;;;;;;;;;;;;;;2060995;28;19913;-79
2023/07/15 17:05:09;;;;;;;;;;;;;;;;;;2055455;28;19921;-82
2023/07/15 17:06:30;;;;;;;;;;;;;;;;;;2050060;28;19914;-79
2023/07/15 17:07:51;;;;;;;;;;;;;;;;;;2051373;28;19910;-80
2023/07/15 17:09:11;;;;;;;;;;;;;;;;;;2052210;28;20320;-81
2023/07/15 17:10:32;;;;;;;;;;;;;;;;;;2053751;28;19914;-81
2023/07/15 17:11:53;;;;;;;;;;;;;;;;;;2048743;28;19906;-81
2023/07/15 17:13:14;;;;;;;;;;;;;;;;;;2053307;28;19906;-82
2023/07/15 17:14:34;;;;;;;;;;;;;;;;;;2061232;28;19906;-81
2023/07/15 17:15:55;;;;;;;;;;;;;;;;;;2062668;28;19910;-82
2023/07/15 17:17:16;;;;;;;;;;;;;;;;;;2054193;28;19917;-81
2023/07/15 17:18:36;;;;;;;;;;;;;;;;;;2051433;28;19932;-83
2023/07/15 17:19:57;;;;;;;;;;;;;;;;;;2056181;28;20398;-80
2023/07/15 17:21:18;;;;;;;;;;;;;;;;;;2050774;28;19918;-84
2023/07/15 17:22:40;;;;;;;;;;;;;;;;;;2053499;28;19913;-83
2023/07/15 17:24:01;;;;;;;;;;;;;;;;;;2051524;28;19925;-82
2023/07/15 17:25:22;;;;;;;;;;;;;;;;;;2061711;28;19932;-82
2023/07/15 17:26:42;;;;;;;;;;;;;;;;;;2052029;28;19914;-83
2023/07/15 17:28:03;;;;;;;;;;;;;;;;;;2054428;28;19906;-81
2023/07/15 17:29:26;;;;;;;;;;;;;;;;;;2047647;28;19910;-78
2023/07/15 17:30:52;;;;;;;;;;;;;;;;;;2063556;28;19952;-78
2023/07/15 17:32:13;;;;;;;;;;;;;;;;;;2054880;28;19910;-78
2023/07/15 17:33:34;;;;;;;;;;;;;;;;;;2058121;28;20389;-78
2023/07/15 17:34:55;;;;;;;;;;;;;;;;;;2055642;28;19966;-79
2023/07/15 17:36:15;;;;;;;;;;;;;;;;;;2047859;28;20294;-79
2023/07/15 17:37:36;;;;;;;;;;;;;;;;;;2052684;28;19906;-79
2023/07/15 17:38:59;;;;;;;;;;;;;;;;;;2065952;28;19910;-79
2023/07/15 17:40:27;;;;;;;;;;;;;;;;;;2053586;28;19919;-79
2023/07/15 17:41:48;;;;;;;;;;;;;;;;;;2066182;28;20293;-79
2023/07/15 17:43:11;;;;;;;;;;;;;;;;;;2068049;28;19906;-79
2023/07/15 17:44:31;;;;;;;;;;;;;;;;;;2071690;28;19894;-80
2023/07/15 17:45:52;;;;;;;;;;;;;;;;;;2071908;28;19906;-80
2023/07/15 17:47:13;;;;;;;;;;;;;;;;;;2063860;28;19910;-78
2023/07/15 17:48:34;;;;;;;;;;;;;;;;;;2060836;28;19910;-79
2023/07/15 17:49:54;;;;;;;;;;;;;;;;;;2058934;28;20374;-79
2023/07/15 17:51:15;;;;;;;;;;;;;;;;;;2053004;28;19917;-79
2023/07/15 17:52:36;;;;;;;;;;;;;;;;;;2060139;28;19906;-80
2023/07/15 17:53:57;;;;;;;;;;;;;;;;;;2059248;28;19969;-79
2023/07/15 17:55:17;;;;;;;;;;;;;;;;;;2063237;28;19917;-79
2023/07/15 17:56:38;;;;;;;;;;;;;;;;;;2063515;28;19914;-79
2023/07/15 17:58:00;;;;;;;;;;;;;;;;;;2065610;28;19910;-79
2023/07/15 17:59:22;;;;;;;;;;;;;;;;;;2065925;28;19917;-78
2023/07/15 18:00:42;;;;;;;;;;;;;;;;;;2068417;28;19984;-77
2023/07/15 18:02:04;;;;;;;;;;;;;;;;;;2065575;28;19910;-77
2023/07/15 18:03:27;;;;;;;;;;;;;;;;;;2069430;28;20416;-77
2023/07/15 18:04:48;;;;;;;;;;;;;;;;;;2074994;28;19932;-77
2023/07/15 18:06:08;;;;;;;;;;;;;;;;;;2075961;28;19909;-78
2023/07/15 18:07:29;;;;;;;;;;;;;;;;;;2064760;28;19913;-78
2023/07/15 18:08:50;;;;;;;;;;;;;;;;;;2070381;28;20272;-79
2023/07/15 18:10:12;;;;;;;;;;;;;;;;;;2061127;28;20305;-78
2023/07/15 18:11:33;;;;;;;;;;;;;;;;;;2070345;28;20379;-77
2023/07/15 18:12:53;;;;;;;;;;;;;;;;;;2075304;28;19910;-78
2023/07/15 18:14:14;;;;;;;;;;;;;;;;;;2069513;28;19921;-79
2023/07/15 18:15:35;;;;;;;;;;;;;;;;;;2058163;28;20354;-79
2023/07/15 18:16:55;;;;;;;;;;;;;;;;;;2067108;28;19905;-78
2023/07/15 18:18:16;;;;;;;;;;;;;;;;;;2069490;28;19913;-79
2023/07/15 18:19:37;;;;;;;;;;;;;;;;;;2072433;28;19913;-78
2023/07/15 18:21:00;;;;;;;;;;;;;;;;;;2066158;28;19917;-78
2023/07/15 18:22:23;;;;;;;;;;;;;;;;;;2070776;28;20288;-78
2023/07/15 18:23:44;;;;;;;;;;;;;;;;;;2065499;28;19909;-79
2023/07/15 18:25:05;;;;;;;;;;;;;;;;;;2065352;28;19913;-79
2023/07/15 18:26:25;;;;;;;;;;;;;;;;;;2067115;28;20280;-79
2023/07/15 18:27:46;;;;;;;;;;;;;;;;;;2071729;28;19905;-79
2023/07/15 18:29:07;;;;;;;;;;;;;;;;;;2056972;28;19906;-79
2023/07/15 18:30:28;;;;;;;;;;;;;;;;;;2053268;28;19914;-78
2023/07/15 18:31:48;;;;;;;;;;;;;;;;;;2060062;28;20308;-78
2023/07/15 18:33:09;;;;;;;;;;;;;;;;;;2065294;28;20151;-78
2023/07/15 18:34:30;;;;;;;;;;;;;;;;;;2071231;28;19917;-78
2023/07/15 18:35:50;;;;;;;;;;;;;;;;;;2072732;28;19917;-77
2023/07/15 18:37:11;;;;;;;;;;;;;;;;;;2067284;28;20380;-77
2023/07/15 18:38:32;;;;;;;;;;;;;;;;;;2065072;28;19905;-77
2023/07/15 18:39:53;;;;;;;;;;;;;;;;;;2062309;28;19920;-76
2023/07/15 18:41:13;;;;;;;;;;;;;;;;;;2061191;28;19906;-77
2023/07/15 18:42:34;;;;;;;;;;;;;;;;;;2066860;28;19912;-77
2023/07/15 18:43:55;;;;;;;;;;;;;;;;;;2057556;28;19930;-78
2023/07/15 18:45:15;;;;;;;;;;;;;;;;;;2071725;28;20275;-78
2023/07/15 18:46:36;;;;;;;;;;;;;;;;;;2061477;28;19906;-77
2023/07/15 18:47:57;;;;;;;;;;;;;;;;;;2062584;28;20301;-77
2023/07/15 18:49:18;;;;;;;;;;;;;;;;;;2071049;28;20236;-77
2023/07/15 18:50:38;;;;;;;;;;;;;;;;;;2064177;28;19917;-76
2023/07/15 18:51:59;;;;;;;;;;;;;;;;;;2066595;28;19906;-77
2023/07/15 18:53:20;;;;;;;;;;;;;;;;;;2064109;28;20381;-77
2023/07/15 18:54:41;;;;;;;;;;;;;;;;;;2070873;28;19912;-77
2023/07/15 18:56:01;;;;;;;;;;;;;;;;;;2066000;28;19913;-77
2023/07/15 18:57:22;;;;;;;;;;;;;;;;;;2055631;28;19906;-77
2023/07/15 18:58:43;;;;;;;;;;;;;;;;;;2057135;28;19906;-77
2023/07/15 19:00:04;;;;;;;;;;;;;;;;;;2064111;28;19922;-77
2023/07/15 19:01:24;;;;;;;;;;;;;;;;;;2072254;28;20296;-76
2023/07/15 19:02:45;;;;;;;;;;;;;;;;;;2071624;28;20168;-77
2023/07/15 19:04:06;;;;;;;;;;;;;;;;;;2068033;28;20298;-77
2023/07/15 19:05:27;;;;;;;;;;;;;;;;;;2072136;28;19905;-77
2023/07/15 19:06:47;;;;;;;;;;;;;;;;;;2059753;28;19921;-77
2023/07/15 19:08:08;;;;;;;;;;;;;;;;;;2066127;28;19960;-76
2023/07/15 19:09:29;;;;;;;;;;;;;;;;;;2074082;28;19905;-75
2023/07/15 19:10:50;;;;;;;;;;;;;;;;;;2072712;28;19914;-77
2023/07/15 19:12:10;;;;;;;;;;;;;;;;;;2062496;28;20305;-75
2023/07/15 19:13:31;;;;;;;;;;;;;;;;;;2068655;28;19956;-76
2023/07/15 19:14:52;;;;;;;;;;;;;;;;;;2065272;28;20004;-76
2023/07/15 19:16:12;;;;;;;;;;;;;;;;;;2059977;28;20351;-75
2023/07/15 19:17:33;;;;;;;;;;;;;;;;;;2057962;28;19910;-77
2023/07/15 19:18:54;;;;;;;;;;;;;;;;;;2054380;28;19910;-76
2023/07/15 19:20:15;;;;;;;;;;;;;;;;;;2062737;28;19914;-76
2023/07/15 19:21:35;;;;;;;;;;;;;;;;;;2067458;28;19912;-77
2023/07/15 19:22:56;;;;;;;;;;;;;;;;;;2058082;28;19914;-76
2023/07/15 19:24:17;;;;;;;;;;;;;;;;;;2055820;28;19910;-76
2023/07/15 19:25:37;;;;;;;;;;;;;;;;;;2063230;28;20297;-76
2023/07/15 19:26:58;;;;;;;;;;;;;;;;;;2068155;28;19963;-77
2023/07/15 19:28:19;;;;;;;;;;;;;;;;;;2062166;28;20273;-76
2023/07/15 19:29:41;;;;;;;;;;;;;;;;;;2064418;28;19905;-77
2023/07/15 19:31:02;;;;;;;;;;;;;;;;;;2063323;28;20285;-77
2023/07/15 19:32:22;;;;;;;;;;;;;;;;;;2065453;28;19912;-77
2023/07/15 19:33:43;;;;;;;;;;;;;;;;;;2072869;28;19905;-77
2023/07/15 19:35:04;;;;;;;;;;;;;;;;;;2056807;28;19929;-77
2023/07/15 19:36:24;;;;;;;;;;;;;;;;;;2063747;28;19932;-77
2023/07/15 19:37:45;;;;;;;;;;;;;;;;;;2056825;28;19913;-77
2023/07/15 19:39:06;;;;;;;;;;;;;;;;;;2056423;28;19913;-77
2023/07/15 19:40:27;;;;;;;;;;;;;;;;;;2058242;28;20435;-77
2023/07/15 19:41:48;;;;;;;;;;;;;;;;;;2069575;28;19905;-77
2023/07/15 19:43:09;;;;;;;;;;;;;;;;;;2069761;28;19909;-77
2023/07/15 19:44:29;;;;;;;;;;;;;;;;;;2070552;28;20380;-77
2023/07/15 19:45:50;;;;;;;;;;;;;;;;;;2056055;28;19918;-77
2023/07/15 19:47:11;;;;;;;;;;;;;;;;;;2061617;28;20340;-77
2023/07/15 19:48:31;;;;;;;;;;;;;;;;;;2061549;28;19914;-77
2023/07/15 19:49:52;;;;;;;;;;;;;;;;;;2069328;28;19909;-77
2023/07/15 19:51:13;;;;;;;;;;;;;;;;;;2071749;28;19909;-77
2023/07/15 19:52:33;;;;;;;;;;;;;;;;;;2073473;28;19909;-77
2023/07/15 19:53:54;;;;;;;;;;;;;;;;;;2073184;28;19906;-77
2023/07/15 19:55:15;;;;;;;;;;;;;;;;;;2068861;28;19906;-78
2023/07/15 19:56:35;;;;;;;;;;;;;;;;;;2064889;28;19910;-77
2023/07/15 19:57:56;;;;;;;;;;;;;;;;;;2062038;28;20320;-77
2023/07/15 19:59:17;;;;;;;;;;;;;;;;;;2061625;28;19925;-77
2023/07/15 20:00:38;;;;;;;;;;;;;;;;;;2062010;28;19921;-77
2023/07/15 20:01:59;;;;;;;;;;;;;;;;;;2060711;28;19910;-77
2023/07/15 20:03:20;;;;;;;;;;;;;;;;;;2069170;28;19935;-78
2023/07/15 20:04:40;;;;;;;;;;;;;;;;;;2064488;28;20324;-77
2023/07/15 20:06:01;;;;;;;;;;;;;;;;;;2068938;28;19913;-77
2023/07/15 20:07:22;;;;;;;;;;;;;;;;;;2072659;28;19909;-77
2023/07/15 20:08:43;;;;;;;;;;;;;;;;;;2063803;28;19909;-78
2023/07/15 20:10:03;;;;;;;;;;;;;;;;;;2060546;28;20468;-77
2023/07/15 20:11:24;;;;;;;;;;;;;;;;;;2070692;28;19913;-77
2023/07/15 20:12:45;;;;;;;;;;;;;;;;;;2072937;28;19910;-77
2023/07/15 20:14:05;;;;;;;;;;;;;;;;;;2073291;28;19909;-77
2023/07/15 20:15:26;;;;;;;;;;;;;;;;;;2067848;28;19909;-78
2023/07/15 20:16:47;;;;;;;;;;;;;;;;;;2071693;28;19975;-78
2023/07/15 20:18:08;;;;;;;;;;;;;;;;;;2072045;28;19912;-77